Time;durP1;ratioP1;P1;durP2;ratioP2;P2;SDS_P1;SDS_P2;PMS_P1;PMS_P2;Temp;Humidity;BMP_temperature;BMP_pressure;BME280_temperature;BME280_humidity;BME280_pressure;Samples;Min_cycle;Max_cycle;Signal;HPM_P1;HPM_P2
2023/12/07 00:00:01;;;;;;;35.70;21.30;;;;;;;-5.98;100.00;101270.60;104231;1262;67556;-50
2023/12/07 00:02:30;;;;;;;42.10;20.80;;;;;;;-5.97;100.00;101275.04;104267;1263;70474;-51
2023/12/07 00:04:58;;;;;;;35.60;20.30;;;;;;;-5.94;100.00;101276.88;104162;1265;59479;-49
2023/12/07 00:07:25;;;;;;;38.70;20.80;;;;;;;-5.92;100.00;101273.14;104454;1262;60304;-50
2023/12/07 00:09:53;;;;;;;36.80;20.70;;;;;;;-5.91;100.00;101277.19;105332;1265;73111;-51
2023/12/07 00:12:20;;;;;;;35.80;20.60;;;;;;;-5.93;100.00;101272.92;104476;1267;67769;-50
2023/12/07 00:14:48;;;;;;;34.80;20.70;;;;;;;-5.94;100.00;101269.00;104422;1267;74751;-50
2023/12/07 00:17:15;;;;;;;36.00;22.40;;;;;;;-5.96;100.00;101268.60;104462;1261;60725;-51
2023/12/07 00:19:43;;;;;;;36.50;22.40;;;;;;;-5.98;100.00;101271.50;104734;1263;59810;-51
2023/12/07 00:22:10;;;;;;;40.70;22.60;;;;;;;-6.00;100.00;101271.55;104624;1258;71840;-51
2023/12/07 00:24:37;;;;;;;42.60;23.50;;;;;;;-6.04;100.00;101267.04;104920;1262;66796;-51
2023/12/07 00:27:05;;;;;;;40.40;23.40;;;;;;;-6.07;100.00;101267.23;104597;1262;71564;-50
2023/12/07 00:29:33;;;;;;;34.90;21.00;;;;;;;-6.12;100.00;101265.98;104474;1257;61820;-49
2023/12/07 00:32:01;;;;;;;36.10;21.40;;;;;;;-6.15;100.00;101265.73;104852;1262;59148;-51
2023/12/07 00:34:28;;;;;;;36.50;20.40;;;;;;;-6.17;100.00;101263.68;104527;1257;71791;-50
2023/12/07 00:36:56;;;;;;;34.70;19.90;;;;;;;-6.19;100.00;101260.81;104368;1262;67246;-51
2023/12/07 00:39:24;;;;;;;34.60;18.70;;;;;;;-6.19;100.00;101266.95;104625;1259;71153;-50
2023/12/07 00:41:51;;;;;;;32.10;19.80;;;;;;;-6.16;100.00;101268.09;104503;1262;61729;-51
2023/12/07 00:44:18;;;;;;;31.40;18.40;;;;;;;-6.15;100.00;101269.36;104470;1257;60458;-49
2023/12/07 00:46:46;;;;;;;35.10;19.30;;;;;;;-6.14;100.00;101267.84;104637;1262;73533;-51
2023/12/07 00:49:13;;;;;;;32.40;19.10;;;;;;;-6.13;100.00;101263.19;104692;1263;65626;-50
2023/12/07 00:51:41;;;;;;;34.10;19.20;;;;;;;-6.13;100.00;101265.27;104546;1257;72188;-50
2023/12/07 00:54:09;;;;;;;36.20;20.10;;;;;;;-6.13;100.00;101262.13;104554;1273;59919;-50
2023/12/07 00:56:37;;;;;;;29.00;18.10;;;;;;;-6.12;100.00;101266.17;104673;1259;59524;-51
2023/12/07 00:59:04;;;;;;;36.40;19.70;;;;;;;-6.10;100.00;101261.88;105515;1262;73774;-52
2023/12/07 01:01:32;;;;;;;34.10;19.90;;;;;;;-6.10;100.00;101262.39;104615;1260;65787;-49
2023/12/07 01:03:59;;;;;;;37.60;21.40;;;;;;;-6.13;100.00;101258.11;104543;1257;72902;-52
2023/12/07 01:06:28;;;;;;;40.30;22.20;;;;;;;-6.16;100.00;101253.62;104875;1259;59901;-50
2023/12/07 01:08:56;;;;;;;35.40;20.40;;;;;;;-6.19;100.00;101253.79;104955;1258;59567;-50
2023/12/07 01:11:23;;;;;;;34.00;20.20;;;;;;;-6.24;100.00;101256.73;104978;1258;71966;-50
2023/12/07 01:13:51;;;;;;;36.50;20.60;;;;;;;-6.29;100.00;101256.02;104824;1260;65734;-49
2023/12/07 01:16:18;;;;;;;36.40;21.10;;;;;;;-6.33;100.00;101253.89;104726;1256;71251;-51
2023/12/07 01:18:46;;;;;;;35.10;21.00;;;;;;;-6.38;100.00;101245.64;104884;1259;61746;-51
2023/12/07 01:21:13;;;;;;;34.00;19.10;;;;;;;-6.41;100.00;101245.34;104938;1258;60093;-50
2023/12/07 01:23:41;;;;;;;32.00;18.40;;;;;;;-6.44;100.00;101245.90;104885;1257;73112;-50
2023/12/07 01:26:08;;;;;;;33.80;18.70;;;;;;;-6.46;100.00;101246.36;104784;1259;67707;-49
2023/12/07 01:28:36;;;;;;;33.00;19.40;;;;;;;-6.46;100.00;101251.23;104931;1258;72669;-49
2023/12/07 01:31:04;;;;;;;33.50;18.40;;;;;;;-6.46;100.00;101249.50;104871;1260;60479;-50
2023/12/07 01:33:31;;;;;;;33.80;18.30;;;;;;;-6.46;100.00;101246.89;104857;1258;59481;-51
2023/12/07 01:35:59;;;;;;;32.80;16.90;;;;;;;-6.44;100.00;101249.04;104982;1254;71857;-52
2023/12/07 01:38:26;;;;;;;30.10;16.70;;;;;;;-6.43;100.00;101244.73;104802;1255;67366;-50
2023/12/07 01:40:54;;;;;;;28.20;16.30;;;;;;;-6.42;100.00;101242.16;104814;1259;73079;-50
2023/12/07 01:43:22;;;;;;;31.60;18.50;;;;;;;-6.40;100.00;101239.63;104868;1258;59608;-50
2023/12/07 01:45:50;;;;;;;29.50;17.70;;;;;;;-6.40;100.00;101237.38;104810;1259;59605;-51
2023/12/07 01:48:17;;;;;;;33.60;20.40;;;;;;;-6.40;100.00;101242.06;104836;1259;72843;-50
2023/12/07 01:50:45;;;;;;;34.10;20.20;;;;;;;-6.42;100.00;101244.23;105581;1256;67241;-50
2023/12/07 01:53:12;;;;;;;38.40;21.90;;;;;;;-6.44;100.00;101242.05;104877;1257;72603;-52
2023/12/07 01:55:40;;;;;;;39.60;22.30;;;;;;;-6.45;100.00;101240.42;104986;1259;59779;-51
2023/12/07 01:58:07;;;;;;;35.00;21.10;;;;;;;-6.47;100.00;101238.63;104752;1259;59540;-51
2023/12/07 02:00:35;;;;;;;38.70;21.50;;;;;;;-6.49;100.00;101236.08;105212;1254;72064;-51
2023/12/07 02:03:03;;;;;;;36.80;20.30;;;;;;;-6.53;100.00;101235.39;104795;1260;67220;-51
2023/12/07 02:05:31;;;;;;;36.20;20.40;;;;;;;-6.57;100.00;101239.44;104612;1257;74573;-51
2023/12/07 02:07:59;;;;;;;31.50;19.80;;;;;;;-6.60;100.00;101232.48;105161;1254;62279;-52
2023/12/07 02:10:27;;;;;;;31.40;18.90;;;;;;;-6.66;100.00;101227.52;106710;1257;60511;-51
2023/12/07 02:12:54;;;;;;;30.70;17.60;;;;;;;-6.72;100.00;101230.34;105106;1259;71800;-51
2023/12/07 02:15:22;;;;;;;32.00;17.60;;;;;;;-6.77;100.00;101233.42;105151;1255;66039;-50
2023/12/07 02:18:12;;;;;;;29.40;17.00;;;;;;;-6.78;100.00;101239.67;104783;1259;72758;-49
2023/12/07 02:20:45;;;;;;;29.60;17.20;;;;;;;-6.77;100.00;101238.84;106382;1258;60397;-49
2023/12/07 02:23:14;;;;;;;27.00;16.60;;;;;;;-6.76;100.00;101229.84;104918;1259;61556;-51
2023/12/07 02:26:28;;;;;;;27.30;15.70;;;;;;;-6.77;100.00;101226.83;104811;1259;71922;-50
2023/12/07 02:28:56;;;;;;;30.10;15.50;;;;;;;-6.80;100.00;101228.27;104776;1254;67520;-51
2023/12/07 02:31:23;;;;;;;30.80;16.40;;;;;;;-6.79;100.00;101221.84;104703;1259;74890;-50
2023/12/07 02:33:51;;;;;;;31.60;16.00;;;;;;;-6.75;100.00;101222.01;104769;1259;61722;-49
2023/12/07 02:36:19;;;;;;;26.10;15.50;;;;;;;-6.71;100.00;101219.91;104825;1260;59589;-50
2023/12/07 02:38:47;;;;;;;27.10;15.60;;;;;;;-6.68;100.00;101216.56;105239;1261;71873;-49
2023/12/07 02:41:14;;;;;;;26.30;16.10;;;;;;;-6.66;100.00;101211.79;104634;1259;66763;-49
2023/12/07 02:43:42;;;;;;;32.00;16.80;;;;;;;-6.64;100.00;101209.77;104604;1257;71496;-50
2023/12/07 02:46:09;;;;;;;27.00;16.10;;;;;;;-6.63;100.00;101211.73;104783;1264;61247;-51
2023/12/07 02:48:37;;;;;;;27.20;15.80;;;;;;;-6.63;100.00;101215.39;104628;1254;59750;-50
2023/12/07 02:51:05;;;;;;;31.90;17.80;;;;;;;-6.65;100.00;101217.43;104720;1255;73075;-50
2023/12/07 02:53:32;;;;;;;34.80;18.90;;;;;;;-6.65;100.00;101222.11;104805;1253;65862;-50
2023/12/07 02:56:00;;;;;;;30.80;16.30;;;;;;;-6.67;100.00;101223.58;104788;1254;73126;-50
2023/12/07 02:58:27;;;;;;;33.10;17.80;;;;;;;-6.71;100.00;101222.38;104943;1266;60572;-50
2023/12/07 03:00:55;;;;;;;34.90;18.80;;;;;;;-6.74;100.00;101225.23;104698;1260;59893;-50
2023/12/07 03:03:22;;;;;;;29.60;17.40;;;;;;;-6.77;100.00;101228.72;105408;1253;71425;-50
2023/12/07 03:05:50;;;;;;;30.40;16.90;;;;;;;-6.80;100.00;101231.23;104878;1259;66999;-51
2023/12/07 03:08:17;;;;;;;27.90;16.30;;;;;;;-6.82;100.00;101233.23;105075;1262;71396;-50
2023/12/07 03:10:44;;;;;;;31.50;17.80;;;;;;;-6.83;100.00;101232.51;104922;1255;62336;-51
2023/12/07 03:13:12;;;;;;;32.50;17.90;;;;;;;-6.81;100.00;101236.41;104790;1260;60445;-52
2023/12/07 03:15:40;;;;;;;28.50;15.50;;;;;;;-6.80;100.00;101240.48;104817;1259;74427;-51
2023/12/07 03:18:07;;;;;;;23.60;14.90;;;;;;;-6.77;100.00;101238.69;104745;1261;65600;-50
2023/12/07 03:20:35;;;;;;;28.70;15.60;;;;;;;-6.75;100.00;101241.23;105840;1259;72703;-51
2023/12/07 03:23:02;;;;;;;27.90;16.40;;;;;;;-6.72;100.00;101245.89;104890;1259;62657;-51
2023/12/07 03:25:30;;;;;;;29.40;17.10;;;;;;;-6.70;100.00;101242.32;104762;1260;60479;-51
2023/12/07 03:27:58;;;;;;;36.50;18.20;;;;;;;-6.67;100.00;101241.42;104858;1259;71591;-51
2023/12/07 03:30:25;;;;;;;40.10;21.90;;;;;;;-6.66;100.00;101240.09;104832;1254;65923;-51
2023/12/07 03:32:53;;;;;;;44.50;23.40;;;;;;;-6.64;100.00;101234.93;104788;1258;72159;-50
2023/12/07 03:35:20;;;;;;;50.50;24.30;;;;;;;-6.61;100.00;101242.03;104792;1254;60702;-51
2023/12/07 03:37:48;;;;;;;54.60;28.10;;;;;;;-6.58;100.00;101242.66;105130;1256;60454;-51
2023/12/07 03:40:16;;;;;;;62.60;28.90;;;;;;;-6.58;100.00;101242.85;104632;1260;71900;-50
2023/12/07 03:42:43;;;;;;;69.40;33.70;;;;;;;-6.58;100.00;101243.92;104918;1254;66003;-52
2023/12/07 03:45:23;;;;;;;61.40;28.40;;;;;;;-6.57;100.00;101243.98;106137;1254;72669;-51
2023/12/07 03:47:50;;;;;;;55.80;26.30;;;;;;;-6.56;100.00;101240.69;104957;1254;62526;-50
2023/12/07 03:50:18;;;;;;;35.60;18.90;;;;;;;-6.56;100.00;101240.36;106150;1254;59838;-51
2023/12/07 03:52:46;;;;;;;33.00;16.40;;;;;;;-6.55;100.00;101235.31;104715;1254;75878;-50
2023/12/07 03:55:14;;;;;;;27.20;15.30;;;;;;;-6.54;100.00;101234.45;104886;1254;65766;-50
2023/12/07 03:57:41;;;;;;;30.20;15.20;;;;;;;-6.54;100.00;101237.61;105009;1258;71438;-50
2023/12/07 04:00:11;;;;;;;26.60;14.20;;;;;;;-6.53;100.00;101239.73;104887;1265;61304;-50
2023/12/07 04:02:38;;;;;;;27.40;15.20;;;;;;;-6.54;100.00;101240.77;109015;1253;59254;-52
2023/12/07 04:05:06;;;;;;;29.10;15.10;;;;;;;-6.53;100.00;101235.38;106844;1257;75993;-50
2023/12/07 04:07:34;;;;;;;29.90;15.20;;;;;;;-6.52;100.00;101237.02;105090;1260;67165;-51
2023/12/07 04:10:05;;;;;;;27.30;15.10;;;;;;;-6.51;100.00;101233.21;106445;1254;72626;-51
2023/12/07 04:12:32;;;;;;;31.10;14.40;;;;;;;-6.50;100.00;101231.84;104958;1255;62498;-50
2023/12/07 04:15:00;;;;;;;28.10;15.10;;;;;;;-6.50;100.00;101229.59;104930;1257;60720;-50
2023/12/07 04:17:28;;;;;;;24.30;13.50;;;;;;;-6.49;100.00;101232.97;104951;1259;72294;-50
2023/12/07 04:19:55;;;;;;;31.20;16.00;;;;;;;-6.49;100.00;101230.85;104927;1257;66852;-50
2023/12/07 04:22:23;;;;;;;23.80;13.30;;;;;;;-6.48;100.00;101231.44;104958;1254;71917;-51
2023/12/07 04:24:51;;;;;;;26.00;14.20;;;;;;;-6.47;100.00;101227.13;105294;1252;61091;-50
2023/12/07 04:27:18;;;;;;;25.90;15.20;;;;;;;-6.46;100.00;101229.05;104826;1254;60317;-51
2023/12/07 04:29:45;;;;;;;30.00;16.80;;;;;;;-6.46;100.00;101220.85;104839;1254;72852;-50
2023/12/07 04:32:13;;;;;;;31.90;15.70;;;;;;;-6.45;100.00;101215.66;104898;1257;65501;-51
2023/12/07 04:34:40;;;;;;;29.60;15.50;;;;;;;-6.44;100.00;101214.11;104749;1254;71683;-50
2023/12/07 04:37:08;;;;;;;30.20;16.70;;;;;;;-6.46;100.00;101211.08;105089;1257;60486;-52
2023/12/07 04:39:36;;;;;;;27.90;15.80;;;;;;;-6.45;100.00;101210.38;105012;1257;61031;-50
2023/12/07 04:42:04;;;;;;;26.40;14.50;;;;;;;-6.44;100.00;101211.31;105411;1257;74425;-51
2023/12/07 04:44:31;;;;;;;27.30;14.80;;;;;;;-6.46;100.00;101213.52;106345;1254;66087;-50
2023/12/07 04:46:59;;;;;;;22.70;13.30;;;;;;;-6.46;100.00;101215.79;105232;1254;72804;-50
2023/12/07 04:49:26;;;;;;;29.10;14.90;;;;;;;-6.45;100.00;101212.84;104967;1258;60650;-49
2023/12/07 04:51:54;;;;;;;25.00;13.70;;;;;;;-6.45;100.00;101216.33;104893;1257;60501;-51
2023/12/07 04:54:21;;;;;;;24.80;13.00;;;;;;;-6.46;100.00;101224.52;104793;1253;72738;-52
2023/12/07 04:56:49;;;;;;;23.50;14.20;;;;;;;-6.47;100.00;101225.38;105037;1257;67484;-50
2023/12/07 04:59:17;;;;;;;22.90;13.70;;;;;;;-6.48;100.00;101225.32;104808;1254;71432;-50
2023/12/07 05:01:45;;;;;;;23.20;13.00;;;;;;;-6.48;100.00;101223.23;105258;1254;60492;-51
2023/12/07 05:04:12;;;;;;;24.60;13.20;;;;;;;-6.46;100.00;101226.77;105661;1260;60629;-50
2023/12/07 05:06:40;;;;;;;20.90;13.70;;;;;;;-6.46;100.00;101226.80;104701;1254;73677;-50
2023/12/07 05:09:10;;;;;;;22.00;13.00;;;;;;;-6.44;100.00;101224.06;104848;1255;66887;-50
2023/12/07 05:11:38;;;;;;;24.70;14.00;;;;;;;-6.44;100.00;101223.05;105125;1254;73208;-50
2023/12/07 05:14:05;;;;;;;27.50;13.90;;;;;;;-6.44;100.00;101221.81;104806;1261;61577;-51
2023/12/07 05:16:33;;;;;;;24.90;12.90;;;;;;;-6.45;100.00;101219.84;104862;1254;60518;-50
2023/12/07 05:19:02;;;;;;;24.20;14.50;;;;;;;-6.45;100.00;101219.29;104779;1254;72633;-50
2023/12/07 05:21:30;;;;;;;28.60;15.70;;;;;;;-6.46;100.00;101222.78;104793;1254;67027;-51
2023/12/07 05:23:58;;;;;;;25.90;15.30;;;;;;;-6.46;100.00;101223.81;105836;1254;71470;-52
2023/12/07 05:26:25;;;;;;;27.60;14.90;;;;;;;-6.47;100.00;101227.79;104875;1258;60591;-50
2023/12/07 05:28:53;;;;;;;26.00;14.60;;;;;;;-6.48;100.00;101226.88;104786;1255;59863;-51
2023/12/07 05:31:20;;;;;;;27.70;14.20;;;;;;;-6.48;100.00;101227.76;105046;1257;72606;-50
2023/12/07 05:33:48;;;;;;;26.30;14.70;;;;;;;-6.48;100.00;101231.27;104820;1253;65718;-50
2023/12/07 05:36:15;;;;;;;24.70;14.10;;;;;;;-6.51;100.00;101232.52;104757;1259;72621;-49
2023/12/07 05:38:43;;;;;;;27.40;14.60;;;;;;;-6.54;100.00;101232.38;104859;1257;60982;-50
2023/12/07 05:41:12;;;;;;;19.50;11.90;;;;;;;-6.55;100.00;101234.61;104751;1253;60618;-49
2023/12/07 05:43:43;;;;;;;24.00;13.60;;;;;;;-6.55;100.00;101236.02;104704;1254;73905;-50
2023/12/07 05:46:10;;;;;;;22.40;13.40;;;;;;;-6.55;100.00;101237.23;104823;1258;67792;-50
2023/12/07 05:48:38;;;;;;;23.70;12.70;;;;;;;-6.55;100.00;101236.54;107048;1253;71917;-50
2023/12/07 05:51:11;;;;;;;23.30;14.00;;;;;;;-6.54;100.00;101240.23;104813;1257;61010;-51
2023/12/07 05:53:38;;;;;;;26.20;14.20;;;;;;;-6.52;100.00;101236.84;104670;1260;60557;-49
2023/12/07 05:56:06;;;;;;;25.00;13.80;;;;;;;-6.51;100.00;101237.04;104865;1254;71754;-49
2023/12/07 05:58:33;;;;;;;26.40;14.60;;;;;;;-6.51;100.00;101239.85;106172;1258;64773;-50
2023/12/07 06:01:02;;;;;;;25.50;13.90;;;;;;;-6.53;100.00;101230.53;106357;1253;72850;-50
2023/12/07 06:03:29;;;;;;;24.50;14.90;;;;;;;-6.52;100.00;101229.66;105809;1254;60550;-51
2023/12/07 06:05:57;;;;;;;29.70;15.40;;;;;;;-6.53;100.00;101229.64;105008;1254;60678;-51
2023/12/07 06:08:24;;;;;;;29.30;16.20;;;;;;;-6.55;100.00;101230.77;105041;1254;74331;-50
2023/12/07 06:10:52;;;;;;;29.20;14.60;;;;;;;-6.56;100.00;101234.77;104890;1254;68147;-50
2023/12/07 06:13:19;;;;;;;24.10;13.70;;;;;;;-6.54;100.00;101234.11;104751;1253;71511;-49
2023/12/07 06:15:47;;;;;;;31.10;16.80;;;;;;;-6.54;100.00;101237.09;104994;1253;60713;-51
2023/12/07 06:18:14;;;;;;;43.80;19.20;;;;;;;-6.52;100.00;101236.15;109013;1254;59139;-51
2023/12/07 06:20:44;;;;;;;43.50;20.30;;;;;;;-6.50;100.00;101232.56;106978;1254;72568;-50
2023/12/07 06:23:12;;;;;;;43.90;20.40;;;;;;;-6.49;100.00;101228.40;104931;1252;67839;-50
2023/12/07 06:25:40;;;;;;;47.60;21.00;;;;;;;-6.50;100.00;101225.24;104749;1254;71486;-50
2023/12/07 06:28:07;;;;;;;45.50;20.90;;;;;;;-6.48;100.00;101217.62;109085;1253;59668;-50
2023/12/07 06:30:35;;;;;;;32.70;17.70;;;;;;;-6.45;100.00;101213.37;106916;1253;60458;-50
2023/12/07 06:33:02;;;;;;;34.10;17.00;;;;;;;-6.42;100.00;101220.14;104808;1257;75997;-48
2023/12/07 06:35:30;;;;;;;40.30;18.60;;;;;;;-6.38;100.00;101226.61;104727;1253;65722;-50
2023/12/07 06:37:58;;;;;;;42.50;19.40;;;;;;;-6.37;100.00;101223.33;104842;1254;72759;-49
2023/12/07 06:40:25;;;;;;;37.40;18.90;;;;;;;-6.34;100.00;101227.14;104768;1258;60958;-49
2023/12/07 06:42:52;;;;;;;33.10;17.00;;;;;;;-6.32;100.00;101223.77;104674;1258;60502;-51
2023/12/07 06:45:20;;;;;;;26.40;15.10;;;;;;;-6.29;100.00;101222.27;104926;1253;73885;-50
2023/12/07 06:47:47;;;;;;;28.60;15.20;;;;;;;-6.24;100.00;101222.49;105053;1258;66813;-50
2023/12/07 06:50:15;;;;;;;30.10;16.80;;;;;;;-6.16;100.00;101226.70;104821;1257;73814;-50
2023/12/07 06:52:42;;;;;;;28.00;15.60;;;;;;;-6.12;100.00;101227.90;104820;1256;61846;-49
2023/12/07 06:55:10;;;;;;;30.40;17.20;;;;;;;-6.09;100.00;101231.86;109138;1252;60321;-51
2023/12/07 06:57:38;;;;;;;30.40;15.80;;;;;;;-6.07;100.00;101232.65;109062;1253;74379;-50
2023/12/07 07:00:10;;;;;;;30.40;16.10;;;;;;;-6.05;100.00;101227.83;109043;1253;68595;-49
2023/12/07 07:02:39;;;;;;;29.20;16.40;;;;;;;-6.01;100.00;101226.60;109051;1253;71395;-50
2023/12/07 07:05:07;;;;;;;35.70;19.20;;;;;;;-5.99;100.00;101231.60;106041;1256;60540;-50
2023/12/07 07:07:35;;;;;;;42.70;21.10;;;;;;;-5.97;100.00;101227.98;109030;1257;58855;-50
2023/12/07 07:10:02;;;;;;;51.60;24.10;;;;;;;-5.95;100.00;101225.10;109109;1253;74694;-49
2023/12/07 07:12:30;;;;;;;44.70;21.40;;;;;;;-5.93;100.00;101225.55;109085;1253;66617;-51
2023/12/07 07:14:58;;;;;;;50.00;21.90;;;;;;;-5.90;100.00;101224.61;109197;1253;71261;-51
2023/12/07 07:17:25;;;;;;;40.30;21.00;;;;;;;-5.89;100.00;101221.89;109001;1254;60866;-50
2023/12/07 07:19:55;;;;;;;35.40;18.20;;;;;;;-5.85;100.00;101216.03;109117;1253;61429;-50
2023/12/07 07:22:22;;;;;;;34.80;17.10;;;;;;;-5.82;100.00;101217.73;108216;1257;72720;-50
2023/12/07 07:24:50;;;;;;;32.10;16.70;;;;;;;-5.80;100.00;101226.95;104741;1252;67880;-50
2023/12/07 07:27:17;;;;;;;29.80;15.90;;;;;;;-5.79;100.00;101226.12;104744;1253;73760;-51
2023/12/07 07:29:46;;;;;;;30.80;16.60;;;;;;;-5.75;100.00;101227.29;104774;1256;63336;-50
2023/12/07 07:32:13;;;;;;;28.90;16.30;;;;;;;-5.72;100.00;101224.27;104936;1253;60493;-50
2023/12/07 07:34:41;;;;;;;31.90;17.00;;;;;;;-5.69;100.00;101227.01;109130;1253;74855;-51
2023/12/07 07:37:08;;;;;;;29.80;15.40;;;;;;;-5.68;100.00;101231.23;107695;1253;66522;-50
2023/12/07 07:39:36;;;;;;;28.50;15.70;;;;;;;-5.68;100.00;101232.30;104998;1253;73590;-49
2023/12/07 07:42:04;;;;;;;24.80;14.90;;;;;;;-5.67;100.00;101239.66;104865;1253;61318;-50
2023/12/07 07:44:32;;;;;;;29.50;15.10;;;;;;;-5.73;100.00;101240.67;109119;1253;60552;-50
2023/12/07 07:46:59;;;;;;;29.70;15.90;;;;;;;-5.76;100.00;101243.70;108916;1252;73952;-50
2023/12/07 07:49:27;;;;;;;29.20;16.80;;;;;;;-5.75;100.00;101250.20;109091;1252;66902;-51
2023/12/07 07:51:54;;;;;;;26.20;15.60;;;;;;;-5.74;100.00;101250.25;109040;1253;71242;-50
2023/12/07 07:54:22;;;;;;;24.00;14.80;;;;;;;-5.75;100.00;101252.31;109124;1256;59452;-49
2023/12/07 07:56:49;;;;;;;28.80;16.90;;;;;;;-5.74;100.00;101255.66;109071;1252;58246;-50
2023/12/07 07:59:16;;;;;;;30.30;16.00;;;;;;;-5.72;100.00;101261.85;109137;1250;72661;-51
2023/12/07 08:01:46;;;;;;;29.80;16.10;;;;;;;-5.69;100.00;101269.33;105680;1253;65746;-50
2023/12/07 08:04:15;;;;;;;29.40;15.70;;;;;;;-5.67;100.00;101273.96;109186;1252;70437;-51
2023/12/07 08:06:43;;;;;;;28.20;16.20;;;;;;;-5.64;100.00;101277.05;109058;1253;59657;-51
2023/12/07 08:09:10;;;;;;;31.00;16.90;;;;;;;-5.64;100.00;101282.66;109153;1252;59248;-50
2023/12/07 08:11:38;;;;;;;31.00;16.90;;;;;;;-5.62;100.00;101282.40;109075;1252;73940;-50
2023/12/07 08:14:05;;;;;;;29.40;16.10;;;;;;;-5.60;100.00;101283.34;109069;1252;66876;-50
2023/12/07 08:16:32;;;;;;;28.00;16.50;;;;;;;-5.57;100.00;101285.77;108981;1253;72706;-51
2023/12/07 08:19:00;;;;;;;32.10;17.90;;;;;;;-5.55;100.00;101287.41;108943;1253;60913;-50
2023/12/07 08:21:29;;;;;;;28.60;16.60;;;;;;;-5.54;100.00;101293.20;109002;1253;58750;-49
2023/12/07 08:23:58;;;;;;;31.40;17.20;;;;;;;-5.56;100.00;101295.39;109023;1253;72693;-50
2023/12/07 08:26:27;;;;;;;34.90;18.70;;;;;;;-5.55;100.00;101298.24;109169;1252;67686;-51
2023/12/07 08:28:56;;;;;;;36.60;18.20;;;;;;;-5.54;100.00;101296.88;106116;1254;71432;-49
2023/12/07 08:31:24;;;;;;;32.70;16.40;;;;;;;-5.53;100.00;101299.20;104859;1253;60969;-51
2023/12/07 08:33:52;;;;;;;32.80;18.70;;;;;;;-5.53;100.00;101295.70;104907;1253;61045;-49
2023/12/07 08:36:20;;;;;;;30.20;17.30;;;;;;;-5.52;100.00;101292.23;107861;1254;72649;-51
2023/12/07 08:38:48;;;;;;;34.20;18.80;;;;;;;-5.51;100.00;101296.31;109071;1253;67785;-49
2023/12/07 08:41:15;;;;;;;32.90;17.80;;;;;;;-5.50;100.00;101297.57;109096;1254;71369;-49
2023/12/07 08:43:43;;;;;;;39.90;19.20;;;;;;;-5.48;100.00;101294.35;107552;1252;61092;-51
2023/12/07 08:46:10;;;;;;;35.80;17.60;;;;;;;-5.46;100.00;101289.88;104894;1252;60457;-51
2023/12/07 08:48:38;;;;;;;36.90;19.10;;;;;;;-5.45;100.00;101284.66;104860;1257;73963;-50
2023/12/07 08:51:10;;;;;;;38.70;20.90;;;;;;;-5.42;100.00;101287.95;107547;1254;66927;-53
2023/12/07 08:53:40;;;;;;;37.50;19.70;;;;;;;-5.38;100.00;101289.32;104922;1254;70461;-49
2023/12/07 08:56:08;;;;;;;31.40;16.80;;;;;;;-5.36;100.00;101287.31;105078;1254;60566;-49
2023/12/07 08:58:35;;;;;;;34.80;18.40;;;;;;;-5.32;100.00;101282.05;104652;1253;60392;-49
2023/12/07 09:01:03;;;;;;;34.00;18.60;;;;;;;-5.30;100.00;101283.16;104948;1255;73592;-49
2023/12/07 09:03:31;;;;;;;34.20;17.80;;;;;;;-5.36;100.00;101283.62;107046;1252;66863;-48
2023/12/07 09:06:00;;;;;;;33.70;19.20;;;;;;;-5.46;100.00;101272.02;105831;1257;72767;-49
2023/12/07 09:08:28;;;;;;;32.40;17.10;;;;;;;-5.54;100.00;101267.33;104886;1254;59670;-49
2023/12/07 09:10:55;;;;;;;28.90;16.60;;;;;;;-5.63;100.00;101266.06;104797;1253;60418;-50
2023/12/07 09:13:23;;;;;;;33.90;18.50;;;;;;;-5.67;100.00;101263.09;104925;1252;72714;-50
2023/12/07 09:15:50;;;;;;;38.00;19.00;;;;;;;-5.64;100.00;101258.33;105220;1256;69060;-52
2023/12/07 09:18:18;;;;;;;36.70;19.50;;;;;;;-5.60;100.00;101263.41;104750;1257;72678;-49
2023/12/07 09:20:47;;;;;;;33.60;18.00;;;;;;;-5.56;100.00;101261.83;109024;1253;61706;-50
2023/12/07 09:23:15;;;;;;;36.80;19.40;;;;;;;-5.53;100.00;101254.77;109121;1253;58979;-50
2023/12/07 09:25:43;;;;;;;35.90;19.20;;;;;;;-5.48;100.00;101255.32;109025;1255;74377;-50
2023/12/07 09:28:11;;;;;;;36.70;20.00;;;;;;;-5.46;100.00;101252.44;109104;1253;66798;-51
2023/12/07 09:30:39;;;;;;;38.30;19.90;;;;;;;-5.46;100.00;101252.63;106796;1257;72936;-49
2023/12/07 09:33:06;;;;;;;33.70;17.30;;;;;;;-5.43;100.00;101242.73;104897;1255;60527;-49
2023/12/07 09:35:34;;;;;;;37.70;18.70;;;;;;;-5.41;100.00;101238.63;104993;1257;59277;-51
2023/12/07 09:38:02;;;;;;;29.20;16.50;;;;;;;-5.41;100.00;101239.14;104977;1253;73844;-50
2023/12/07 09:40:30;;;;;;;35.80;18.30;;;;;;;-5.45;100.00;101234.29;104825;1253;68502;-51
2023/12/07 09:42:57;;;;;;;33.80;17.90;;;;;;;-5.48;100.00;101230.69;105347;1253;73540;-50
2023/12/07 09:45:25;;;;;;;35.40;19.20;;;;;;;-5.54;100.00;101231.83;104859;1253;61314;-50
2023/12/07 09:47:55;;;;;;;35.00;18.40;;;;;;;-5.54;100.00;101237.94;104924;1258;60448;-49
2023/12/07 09:50:24;;;;;;;35.90;18.40;;;;;;;-5.51;100.00;101238.75;107363;1253;73411;-52
2023/12/07 09:52:53;;;;;;;37.30;20.10;;;;;;;-5.48;100.00;101239.07;105244;1258;67884;-50
2023/12/07 09:55:34;;;;;;;36.60;19.10;;;;;;;-5.46;100.00;101240.38;105119;1253;71459;-51
2023/12/07 09:58:04;;;;;;;41.60;20.40;;;;;;;-5.42;100.00;101240.54;107486;1257;60431;-51
2023/12/07 10:00:33;;;;;;;38.10;20.30;;;;;;;-5.41;100.00;101237.95;106283;1255;60804;-48
2023/12/07 10:03:01;;;;;;;37.70;21.00;;;;;;;-5.39;100.00;101233.14;107192;1253;72637;-49
2023/12/07 10:05:29;;;;;;;39.60;21.40;;;;;;;-5.37;100.00;101229.53;104941;1258;66772;-51
2023/12/07 10:07:57;;;;;;;37.40;18.80;;;;;;;-5.40;100.00;101227.30;109037;1254;72871;-49
2023/12/07 10:10:24;;;;;;;34.40;19.80;;;;;;;-5.53;100.00;101222.75;108566;1253;64040;-51
2023/12/07 10:12:57;;;;;;;36.00;19.40;;;;;;;-5.60;100.00;101221.77;104811;1258;60530;-50
2023/12/07 10:15:25;;;;;;;42.20;19.70;;;;;;;-5.65;100.00;101220.85;108241;1255;74738;-50
2023/12/07 10:17:58;;;;;;;42.40;22.10;;;;;;;-5.66;100.00;101209.63;105411;1259;66859;-49
2023/12/07 10:20:28;;;;;;;40.90;21.50;;;;;;;-5.67;100.00;101206.44;106202;1256;71692;-51
2023/12/07 10:23:07;;;;;;;37.80;20.80;;;;;;;-5.66;100.00;101204.39;104501;1253;62350;-51
2023/12/07 10:25:38;;;;;;;43.20;21.60;;;;;;;-5.59;100.00;101208.52;104590;1253;60325;-52
2023/12/07 10:28:07;;;;;;;37.40;19.40;;;;;;;-5.57;100.00;101206.67;104660;1254;72768;-50
2023/12/07 10:30:36;;;;;;;37.30;20.50;;;;;;;-5.57;100.00;101212.65;108859;1253;68020;-50
2023/12/07 10:33:07;;;;;;;43.60;22.30;;;;;;;-5.52;100.00;101199.20;106459;1258;70994;-50
2023/12/07 10:35:41;;;;;;;42.60;21.70;;;;;;;-5.52;100.00;101191.65;104475;1254;60903;-49
2023/12/07 10:38:10;;;;;;;38.10;20.20;;;;;;;-5.59;100.00;101197.69;105777;1253;61230;-49
2023/12/07 10:40:37;;;;;;;39.90;19.90;;;;;;;-5.67;100.00;101193.66;106580;1253;72006;-49
2023/12/07 10:43:06;;;;;;;37.90;20.90;;;;;;;-5.73;100.00;101198.21;104702;1254;66465;-50
2023/12/07 10:45:34;;;;;;;41.80;19.90;;;;;;;-5.77;100.00;101200.45;106040;1253;71427;-50
2023/12/07 10:48:09;;;;;;;39.20;21.20;;;;;;;-5.79;100.00;101206.35;104659;1255;61216;-49
2023/12/07 10:50:43;;;;;;;41.00;21.40;;;;;;;-5.73;100.00;101207.45;105471;1258;60928;-51
2023/12/07 10:53:27;;;;;;;39.60;20.20;;;;;;;-5.68;100.00;101203.10;105208;1253;72848;-50
2023/12/07 10:56:00;;;;;;;35.70;19.00;;;;;;;-5.67;100.00;101204.02;104764;1254;68149;-46
2023/12/07 10:58:28;;;;;;;36.30;19.20;;;;;;;-5.65;100.00;101193.59;105065;1253;74503;-50